sensor_id;sensor_type;location;lat;lon;timestamp;temperature;humidity
35613;DHT22;22054;51.646;7.078;2023-07-29T00:02:01;19.80;99.90
35613;DHT22;22054;51.646;7.078;2023-07-29T00:04:28;19.50;99.90
35613;DHT22;22054;51.646;7.078;2023-07-29T00:06:53;19.50;99.90
35613;DHT22;22054;51.646;7.078;2023-07-29T00:09:19;19.50;99.90
35613;DHT22;22054;51.646;7.078;2023-07-29T00:11:45;19.50;99.90
35613;DHT22;22054;51.646;7.078;2023-07-29T00:14:10;19.50;99.90
35613;DHT22;22054;51.646;7.078;2023-07-29T00:16:36;19.40;99.90
35613;DHT22;22054;51.646;7.078;2023-07-29T00:19:02;19.50;99.90
35613;DHT22;22054;51.646;7.078;2023-07-29T00:21:28;19.40;99.90
35613;DHT22;22054;51.646;7.078;2023-07-29T00:23:54;19.30;99.90
35613;DHT22;22054;51.646;7.078;2023-07-29T00:26:22;19.30;99.90
35613;DHT22;22054;51.646;7.078;2023-07-29T00:28:51;19.30;99.90
35613;DHT22;22054;51.646;7.078;2023-07-29T00:31:17;19.30;99.90
35613;DHT22;22054;51.646;7.078;2023-07-29T00:33:43;19.60;99.90
35613;DHT22;22054;51.646;7.078;2023-07-29T00:36:08;19.30;99.90
35613;DHT22;22054;51.646;7.078;2023-07-29T00:38:34;19.30;99.90
35613;DHT22;22054;51.646;7.078;2023-07-29T00:41:02;19.30;99.90
35613;DHT22;22054;51.646;7.078;2023-07-29T00:43:28;19.30;99.90
35613;DHT22;22054;51.646;7.078;2023-07-29T00:45:54;19.30;99.90
35613;DHT22;22054;51.646;7.078;2023-07-29T00:48:22;19.30;99.90
35613;DHT22;22054;51.646;7.078;2023-07-29T00:50:49;19.30;99.90
35613;DHT22;22054;51.646;7.078;2023-07-29T00:53:15;19.30;99.90
35613;DHT22;22054;51.646;7.078;2023-07-29T00:55:42;19.30;99.90
35613;DHT22;22054;51.646;7.078;2023-07-29T00:58:07;19.20;99.90
35613;DHT22;22054;51.646;7.078;2023-07-29T01:00:33;19.30;99.90
35613;DHT22;22054;51.646;7.078;2023-07-29T01:02:59;19.30;99.90
35613;DHT22;22054;51.646;7.078;2023-07-29T01:05:32;19.20;99.90
35613;DHT22;22054;51.646;7.078;2023-07-29T01:08:13;19.10;99.90
35613;DHT22;22054;51.646;7.078;2023-07-29T01:11:25;19.00;99.90
35613;DHT22;22054;51.646;7.078;2023-07-29T01:14:05;19.20;99.90
35613;DHT22;22054;51.646;7.078;2023-07-29T01:16:42;19.40;99.90
35613;DHT22;22054;51.646;7.078;2023-07-29T01:22:16;19.30;99.90
35613;DHT22;22054;51.646;7.078;2023-07-29T01:24:43;19.50;99.90
35613;DHT22;22054;51.646;7.078;2023-07-29T01:27:09;19.40;99.90
35613;DHT22;22054;51.646;7.078;2023-07-29T01:29:34;19.50;99.90
35613;DHT22;22054;51.646;7.078;2023-07-29T01:32:06;19.80;99.90
35613;DHT22;22054;51.646;7.078;2023-07-29T01:34:44;19.60;99.90
35613;DHT22;22054;51.646;7.078;2023-07-29T01:37:16;19.70;99.90
35613;DHT22;22054;51.646;7.078;2023-07-29T01:39:47;19.70;99.90
35613;DHT22;22054;51.646;7.078;2023-07-29T01:42:15;19.80;99.90
35613;DHT22;22054;51.646;7.078;2023-07-29T01:44:41;19.70;99.90
35613;DHT22;22054;51.646;7.078;2023-07-29T01:47:08;19.80;99.90
35613;DHT22;22054;51.646;7.078;2023-07-29T01:49:34;20.00;99.90
35613;DHT22;22054;51.646;7.078;2023-07-29T01:51:59;19.90;99.90
35613;DHT22;22054;51.646;7.078;2023-07-29T01:54:25;19.80;99.90
35613;DHT22;22054;51.646;7.078;2023-07-29T01:56:51;19.70;99.90
35613;DHT22;22054;51.646;7.078;2023-07-29T01:59:16;19.60;99.90
35613;DHT22;22054;51.646;7.078;2023-07-29T02:01:42;19.60;99.90
35613;DHT22;22054;51.646;7.078;2023-07-29T02:04:08;19.70;99.90
35613;DHT22;22054;51.646;7.078;2023-07-29T02:06:34;19.80;99.90
35613;DHT22;22054;51.646;7.078;2023-07-29T02:09:00;19.90;99.90
35613;DHT22;22054;51.646;7.078;2023-07-29T02:11:25;19.80;99.90
35613;DHT22;22054;51.646;7.078;2023-07-29T02:13:54;20.10;99.90
35613;DHT22;22054;51.646;7.078;2023-07-29T02:16:20;20.10;99.90
35613;DHT22;22054;51.646;7.078;2023-07-29T02:18:47;19.90;99.90
35613;DHT22;22054;51.646;7.078;2023-07-29T02:21:13;19.90;99.90
35613;DHT22;22054;51.646;7.078;2023-07-29T02:23:38;19.90;99.90
35613;DHT22;22054;51.646;7.078;2023-07-29T02:26:04;19.80;99.90
35613;DHT22;22054;51.646;7.078;2023-07-29T02:28:30;19.80;99.90
35613;DHT22;22054;51.646;7.078;2023-07-29T02:31:12;19.70;99.90
35613;DHT22;22054;51.646;7.078;2023-07-29T02:33:40;19.90;99.90
35613;DHT22;22054;51.646;7.078;2023-07-29T02:36:05;19.80;99.90
35613;DHT22;22054;51.646;7.078;2023-07-29T02:38:31;19.70;99.90
35613;DHT22;22054;51.646;7.078;2023-07-29T02:40:57;19.80;99.90
35613;DHT22;22054;51.646;7.078;2023-07-29T02:43:22;19.80;99.90
35613;DHT22;22054;51.646;7.078;2023-07-29T02:45:48;19.80;99.90
35613;DHT22;22054;51.646;7.078;2023-07-29T02:48:14;19.80;99.90
35613;DHT22;22054;51.646;7.078;2023-07-29T02:50:39;19.80;99.90
35613;DHT22;22054;51.646;7.078;2023-07-29T02:53:05;19.80;99.90
35613;DHT22;22054;51.646;7.078;2023-07-29T02:55:31;19.90;99.90
35613;DHT22;22054;51.646;7.078;2023-07-29T02:57:56;20.00;99.90
35613;DHT22;22054;51.646;7.078;2023-07-29T03:00:22;20.20;99.90
35613;DHT22;22054;51.646;7.078;2023-07-29T03:02:49;19.90;99.90
35613;DHT22;22054;51.646;7.078;2023-07-29T03:05:15;19.80;99.90
35613;DHT22;22054;51.646;7.078;2023-07-29T03:07:41;19.90;99.90
35613;DHT22;22054;51.646;7.078;2023-07-29T03:10:07;19.90;99.90
35613;DHT22;22054;51.646;7.078;2023-07-29T03:12:33;19.90;99.90
35613;DHT22;22054;51.646;7.078;2023-07-29T03:14:58;19.90;99.90
35613;DHT22;22054;51.646;7.078;2023-07-29T03:17:25;20.00;99.90
35613;DHT22;22054;51.646;7.078;2023-07-29T03:19:51;20.10;99.90
35613;DHT22;22054;51.646;7.078;2023-07-29T03:22:17;20.00;99.90
35613;DHT22;22054;51.646;7.078;2023-07-29T03:24:43;19.90;99.90
35613;DHT22;22054;51.646;7.078;2023-07-29T03:27:08;20.10;99.90
35613;DHT22;22054;51.646;7.078;2023-07-29T03:29:35;20.10;99.90
35613;DHT22;22054;51.646;7.078;2023-07-29T03:32:01;20.30;99.90
35613;DHT22;22054;51.646;7.078;2023-07-29T03:34:26;20.00;99.90
35613;DHT22;22054;51.646;7.078;2023-07-29T03:36:52;20.30;99.90
35613;DHT22;22054;51.646;7.078;2023-07-29T03:39:18;20.10;99.90
35613;DHT22;22054;51.646;7.078;2023-07-29T03:41:43;19.90;99.90
35613;DHT22;22054;51.646;7.078;2023-07-29T03:44:09;20.20;99.90
35613;DHT22;22054;51.646;7.078;2023-07-29T03:46:35;20.20;99.90
35613;DHT22;22054;51.646;7.078;2023-07-29T03:49:00;20.00;99.90
35613;DHT22;22054;51.646;7.078;2023-07-29T03:51:26;20.10;99.90
35613;DHT22;22054;51.646;7.078;2023-07-29T03:53:52;20.00;99.90
35613;DHT22;22054;51.646;7.078;2023-07-29T03:56:18;19.90;99.90
35613;DHT22;22054;51.646;7.078;2023-07-29T03:58:45;19.90;99.90
35613;DHT22;22054;51.646;7.078;2023-07-29T04:01:12;20.00;99.90
35613;DHT22;22054;51.646;7.078;2023-07-29T04:03:37;20.00;99.90
35613;DHT22;22054;51.646;7.078;2023-07-29T04:06:03;19.90;99.90
35613;DHT22;22054;51.646;7.078;2023-07-29T04:08:29;20.00;99.90
35613;DHT22;22054;51.646;7.078;2023-07-29T04:10:55;20.00;99.90
35613;DHT22;22054;51.646;7.078;2023-07-29T04:13:20;19.80;99.90
35613;DHT22;22054;51.646;7.078;2023-07-29T04:15:46;19.70;99.90
35613;DHT22;22054;51.646;7.078;2023-07-29T04:18:12;19.60;99.90
35613;DHT22;22054;51.646;7.078;2023-07-29T04:20:37;19.50;99.90
35613;DHT22;22054;51.646;7.078;2023-07-29T04:23:03;19.40;99.90
35613;DHT22;22054;51.646;7.078;2023-07-29T04:25:29;19.40;99.90
35613;DHT22;22054;51.646;7.078;2023-07-29T04:27:54;19.40;99.90
35613;DHT22;22054;51.646;7.078;2023-07-29T04:30:23;19.30;99.90
35613;DHT22;22054;51.646;7.078;2023-07-29T04:32:48;19.20;99.90
35613;DHT22;22054;51.646;7.078;2023-07-29T04:35:14;19.20;99.90
35613;DHT22;22054;51.646;7.078;2023-07-29T04:37:40;19.20;99.90
35613;DHT22;22054;51.646;7.078;2023-07-29T04:40:06;19.20;99.90
35613;DHT22;22054;51.646;7.078;2023-07-29T04:42:32;19.00;99.90
35613;DHT22;22054;51.646;7.078;2023-07-29T04:44:58;18.90;99.90
35613;DHT22;22054;51.646;7.078;2023-07-29T04:47:24;18.90;99.90
35613;DHT22;22054;51.646;7.078;2023-07-29T04:49:49;18.80;99.90
35613;DHT22;22054;51.646;7.078;2023-07-29T04:52:15;19.00;99.90
35613;DHT22;22054;51.646;7.078;2023-07-29T04:54:41;18.80;99.90
35613;DHT22;22054;51.646;7.078;2023-07-29T04:57:07;18.90;99.90
35613;DHT22;22054;51.646;7.078;2023-07-29T04:59:32;18.90;99.90
35613;DHT22;22054;51.646;7.078;2023-07-29T05:01:58;18.80;99.90
35613;DHT22;22054;51.646;7.078;2023-07-29T05:04:24;18.90;99.90
35613;DHT22;22054;51.646;7.078;2023-07-29T05:06:50;19.00;99.90
35613;DHT22;22054;51.646;7.078;2023-07-29T05:09:17;18.80;99.90
35613;DHT22;22054;51.646;7.078;2023-07-29T05:11:44;18.80;99.90
35613;DHT22;22054;51.646;7.078;2023-07-29T05:14:11;18.90;99.90
35613;DHT22;22054;51.646;7.078;2023-07-29T05:16:38;18.80;99.90
35613;DHT22;22054;51.646;7.078;2023-07-29T05:19:03;18.70;99.90
35613;DHT22;22054;51.646;7.078;2023-07-29T05:21:29;18.90;99.90
35613;DHT22;22054;51.646;7.078;2023-07-29T05:23:55;19.10;99.90
35613;DHT22;22054;51.646;7.078;2023-07-29T05:26:22;18.90;99.90
35613;DHT22;22054;51.646;7.078;2023-07-29T05:28:48;19.00;99.90
35613;DHT22;22054;51.646;7.078;2023-07-29T05:31:13;19.10;99.90
35613;DHT22;22054;51.646;7.078;2023-07-29T05:33:39;19.10;99.90
35613;DHT22;22054;51.646;7.078;2023-07-29T05:36:05;19.10;99.90
35613;DHT22;22054;51.646;7.078;2023-07-29T05:38:31;19.10;99.90
35613;DHT22;22054;51.646;7.078;2023-07-29T05:40:57;19.10;99.90
35613;DHT22;22054;51.646;7.078;2023-07-29T05:43:24;19.00;99.90
35613;DHT22;22054;51.646;7.078;2023-07-29T05:45:50;18.80;99.90
35613;DHT22;22054;51.646;7.078;2023-07-29T05:48:16;19.00;99.90
35613;DHT22;22054;51.646;7.078;2023-07-29T05:50:42;19.00;99.90
35613;DHT22;22054;51.646;7.078;2023-07-29T05:53:07;19.00;99.90
35613;DHT22;22054;51.646;7.078;2023-07-29T05:55:33;19.10;99.90
35613;DHT22;22054;51.646;7.078;2023-07-29T05:57:59;19.00;99.90
35613;DHT22;22054;51.646;7.078;2023-07-29T06:00:25;19.20;99.90
35613;DHT22;22054;51.646;7.078;2023-07-29T06:02:50;19.20;99.90
35613;DHT22;22054;51.646;7.078;2023-07-29T06:05:16;19.00;99.90
35613;DHT22;22054;51.646;7.078;2023-07-29T06:07:42;19.10;99.90
35613;DHT22;22054;51.646;7.078;2023-07-29T06:10:12;19.00;99.90
35613;DHT22;22054;51.646;7.078;2023-07-29T06:12:39;19.20;99.90
35613;DHT22;22054;51.646;7.078;2023-07-29T06:15:05;19.20;99.90
35613;DHT22;22054;51.646;7.078;2023-07-29T06:17:31;19.10;99.90
35613;DHT22;22054;51.646;7.078;2023-07-29T06:19:56;19.20;99.90
35613;DHT22;22054;51.646;7.078;2023-07-29T06:22:22;19.20;99.90
35613;DHT22;22054;51.646;7.078;2023-07-29T06:24:48;19.20;99.90
35613;DHT22;22054;51.646;7.078;2023-07-29T06:27:13;19.20;99.90
35613;DHT22;22054;51.646;7.078;2023-07-29T06:29:39;19.10;99.90
35613;DHT22;22054;51.646;7.078;2023-07-29T06:32:05;19.10;99.90
35613;DHT22;22054;51.646;7.078;2023-07-29T06:34:31;19.20;99.90
35613;DHT22;22054;51.646;7.078;2023-07-29T06:36:57;19.00;99.90
35613;DHT22;22054;51.646;7.078;2023-07-29T06:39:22;19.00;99.90
35613;DHT22;22054;51.646;7.078;2023-07-29T06:41:48;19.10;99.90
35613;DHT22;22054;51.646;7.078;2023-07-29T06:44:14;19.10;99.90
35613;DHT22;22054;51.646;7.078;2023-07-29T06:46:39;19.30;99.90
35613;DHT22;22054;51.646;7.078;2023-07-29T06:49:05;19.30;99.90
35613;DHT22;22054;51.646;7.078;2023-07-29T06:51:31;19.30;99.90
35613;DHT22;22054;51.646;7.078;2023-07-29T06:54:04;19.40;99.90
35613;DHT22;22054;51.646;7.078;2023-07-29T06:56:29;19.30;99.90
35613;DHT22;22054;51.646;7.078;2023-07-29T06:58:55;19.30;99.90
35613;DHT22;22054;51.646;7.078;2023-07-29T07:01:21;19.30;99.90
35613;DHT22;22054;51.646;7.078;2023-07-29T07:03:46;19.30;99.90
35613;DHT22;22054;51.646;7.078;2023-07-29T07:06:12;19.50;99.90
35613;DHT22;22054;51.646;7.078;2023-07-29T07:08:38;19.50;99.90
35613;DHT22;22054;51.646;7.078;2023-07-29T07:11:03;19.20;99.90
35613;DHT22;22054;51.646;7.078;2023-07-29T07:13:29;19.50;99.90
35613;DHT22;22054;51.646;7.078;2023-07-29T07:15:55;19.20;99.90
35613;DHT22;22054;51.646;7.078;2023-07-29T07:18:21;19.40;99.90
35613;DHT22;22054;51.646;7.078;2023-07-29T07:20:50;19.30;1.00
35613;DHT22;22054;51.646;7.078;2023-07-29T07:23:18;19.50;1.00
35613;DHT22;22054;51.646;7.078;2023-07-29T07:25:44;19.50;1.00
35613;DHT22;22054;51.646;7.078;2023-07-29T07:28:10;19.60;1.00
35613;DHT22;22054;51.646;7.078;2023-07-29T07:30:40;19.80;1.00
35613;DHT22;22054;51.646;7.078;2023-07-29T07:33:09;20.20;1.00
35613;DHT22;22054;51.646;7.078;2023-07-29T07:35:35;20.30;1.00
35613;DHT22;22054;51.646;7.078;2023-07-29T07:38:00;20.60;1.00
35613;DHT22;22054;51.646;7.078;2023-07-29T07:40:29;20.60;1.00
35613;DHT22;22054;51.646;7.078;2023-07-29T07:42:56;20.60;1.00
35613;DHT22;22054;51.646;7.078;2023-07-29T07:45:21;20.40;1.00
35613;DHT22;22054;51.646;7.078;2023-07-29T07:47:47;20.30;1.00
35613;DHT22;22054;51.646;7.078;2023-07-29T07:50:13;20.40;1.00
35613;DHT22;22054;51.646;7.078;2023-07-29T07:55:15;20.50;1.00
35613;DHT22;22054;51.646;7.078;2023-07-29T07:57:40;20.40;1.00
35613;DHT22;22054;51.646;7.078;2023-07-29T08:00:06;20.40;1.00
35613;DHT22;22054;51.646;7.078;2023-07-29T08:02:33;20.40;1.00
35613;DHT22;22054;51.646;7.078;2023-07-29T08:04:58;20.40;1.00
35613;DHT22;22054;51.646;7.078;2023-07-29T08:07:24;21.00;1.00
35613;DHT22;22054;51.646;7.078;2023-07-29T08:09:50;20.80;1.00
35613;DHT22;22054;51.646;7.078;2023-07-29T08:12:16;20.90;1.00
35613;DHT22;22054;51.646;7.078;2023-07-29T08:14:45;21.10;1.00
35613;DHT22;22054;51.646;7.078;2023-07-29T08:17:10;21.30;1.00
35613;DHT22;22054;51.646;7.078;2023-07-29T08:19:36;21.20;99.90
35613;DHT22;22054;51.646;7.078;2023-07-29T08:22:03;21.40;99.90
35613;DHT22;22054;51.646;7.078;2023-07-29T08:24:29;21.60;99.90
35613;DHT22;22054;51.646;7.078;2023-07-29T08:26:55;21.60;99.90
35613;DHT22;22054;51.646;7.078;2023-07-29T08:29:21;21.50;99.90
35613;DHT22;22054;51.646;7.078;2023-07-29T08:34:37;21.20;1.00
35613;DHT22;22054;51.646;7.078;2023-07-29T08:37:03;21.10;1.00
35613;DHT22;22054;51.646;7.078;2023-07-29T08:39:28;21.30;1.00
35613;DHT22;22054;51.646;7.078;2023-07-29T08:42:02;21.60;1.00
35613;DHT22;22054;51.646;7.078;2023-07-29T08:44:36;21.70;99.90
35613;DHT22;22054;51.646;7.078;2023-07-29T08:47:06;21.70;99.90
35613;DHT22;22054;51.646;7.078;2023-07-29T08:49:32;21.70;1.00
35613;DHT22;22054;51.646;7.078;2023-07-29T08:51:59;21.80;30.50
35613;DHT22;22054;51.646;7.078;2023-07-29T08:54:25;21.70;99.90
35613;DHT22;22054;51.646;7.078;2023-07-29T08:56:51;21.70;99.90
35613;DHT22;22054;51.646;7.078;2023-07-29T08:59:18;21.80;23.40
35613;DHT22;22054;51.646;7.078;2023-07-29T09:01:44;22.00;26.80
35613;DHT22;22054;51.646;7.078;2023-07-29T09:04:10;22.30;1.00
35613;DHT22;22054;51.646;7.078;2023-07-29T09:06:36;22.60;1.00
35613;DHT22;22054;51.646;7.078;2023-07-29T09:09:08;22.80;99.90
35613;DHT22;22054;51.646;7.078;2023-07-29T09:11:34;22.90;99.90
35613;DHT22;22054;51.646;7.078;2023-07-29T09:14:00;23.20;1.00
35613;DHT22;22054;51.646;7.078;2023-07-29T09:16:26;23.20;99.90
35613;DHT22;22054;51.646;7.078;2023-07-29T09:18:52;23.20;1.00
35613;DHT22;22054;51.646;7.078;2023-07-29T09:21:23;22.90;1.00
35613;DHT22;22054;51.646;7.078;2023-07-29T09:23:57;22.70;1.00
35613;DHT22;22054;51.646;7.078;2023-07-29T09:26:23;22.90;99.90
35613;DHT22;22054;51.646;7.078;2023-07-29T09:28:57;23.10;1.00
35613;DHT22;22054;51.646;7.078;2023-07-29T09:31:26;23.50;5.90
35613;DHT22;22054;51.646;7.078;2023-07-29T09:34:00;23.80;1.00
35613;DHT22;22054;51.646;7.078;2023-07-29T09:36:28;23.80;47.30
35613;DHT22;22054;51.646;7.078;2023-07-29T09:38:57;23.70;85.60
35613;DHT22;22054;51.646;7.078;2023-07-29T09:41:24;23.60;99.90
35613;DHT22;22054;51.646;7.078;2023-07-29T09:44:01;23.40;99.90
35613;DHT22;22054;51.646;7.078;2023-07-29T09:46:37;23.20;1.00
35613;DHT22;22054;51.646;7.078;2023-07-29T09:49:05;23.10;1.00
35613;DHT22;22054;51.646;7.078;2023-07-29T09:51:32;23.10;99.90
35613;DHT22;22054;51.646;7.078;2023-07-29T09:54:03;23.20;1.00
35613;DHT22;22054;51.646;7.078;2023-07-29T09:56:29;23.40;1.00
35613;DHT22;22054;51.646;7.078;2023-07-29T09:58:58;23.60;1.00
35613;DHT22;22054;51.646;7.078;2023-07-29T10:01:24;23.60;99.90
35613;DHT22;22054;51.646;7.078;2023-07-29T10:03:50;23.70;99.90
35613;DHT22;22054;51.646;7.078;2023-07-29T10:06:17;23.60;1.00
35613;DHT22;22054;51.646;7.078;2023-07-29T10:08:44;23.50;99.90
35613;DHT22;22054;51.646;7.078;2023-07-29T10:11:11;23.40;1.00
35613;DHT22;22054;51.646;7.078;2023-07-29T10:13:43;23.60;99.90
35613;DHT22;22054;51.646;7.078;2023-07-29T10:16:11;23.60;1.00
35613;DHT22;22054;51.646;7.078;2023-07-29T10:18:37;23.60;99.90
35613;DHT22;22054;51.646;7.078;2023-07-29T10:21:05;24.00;1.00
35613;DHT22;22054;51.646;7.078;2023-07-29T10:23:38;24.30;99.90
35613;DHT22;22054;51.646;7.078;2023-07-29T10:26:10;24.30;1.00
35613;DHT22;22054;51.646;7.078;2023-07-29T10:28:40;24.20;1.00
35613;DHT22;22054;51.646;7.078;2023-07-29T10:31:07;24.10;99.90
35613;DHT22;22054;51.646;7.078;2023-07-29T10:33:34;24.20;1.00
35613;DHT22;22054;51.646;7.078;2023-07-29T10:36:00;24.20;1.00
35613;DHT22;22054;51.646;7.078;2023-07-29T10:38:27;24.30;99.90
35613;DHT22;22054;51.646;7.078;2023-07-29T10:40:55;24.50;1.00
35613;DHT22;22054;51.646;7.078;2023-07-29T10:43:33;24.80;99.90
35613;DHT22;22054;51.646;7.078;2023-07-29T10:46:18;24.50;99.90
35613;DHT22;22054;51.646;7.078;2023-07-29T10:51:37;24.50;1.00
35613;DHT22;22054;51.646;7.078;2023-07-29T10:56:40;24.30;99.90
35613;DHT22;22054;51.646;7.078;2023-07-29T11:01:40;24.50;1.00
35613;DHT22;22054;51.646;7.078;2023-07-29T11:15:23;24.30;1.00
35613;DHT22;22054;51.646;7.078;2023-07-29T11:17:55;24.50;99.90
35613;DHT22;22054;51.646;7.078;2023-07-29T11:20:25;24.20;1.00
35613;DHT22;22054;51.646;7.078;2023-07-29T11:22:53;24.20;99.90
35613;DHT22;22054;51.646;7.078;2023-07-29T11:25:22;24.10;1.00
35613;DHT22;22054;51.646;7.078;2023-07-29T11:27:49;24.00;1.00
35613;DHT22;22054;51.646;7.078;2023-07-29T11:30:16;24.20;1.00
35613;DHT22;22054;51.646;7.078;2023-07-29T11:32:44;24.40;1.00
35613;DHT22;22054;51.646;7.078;2023-07-29T11:35:12;24.50;1.00
35613;DHT22;22054;51.646;7.078;2023-07-29T11:37:48;24.60;1.00
35613;DHT22;22054;51.646;7.078;2023-07-29T11:40:22;24.70;61.30
35613;DHT22;22054;51.646;7.078;2023-07-29T11:42:49;24.60;45.30
35613;DHT22;22054;51.646;7.078;2023-07-29T11:45:16;24.90;1.00
35613;DHT22;22054;51.646;7.078;2023-07-29T11:47:43;25.40;1.00
35613;DHT22;22054;51.646;7.078;2023-07-29T11:52:46;26.10;99.90
35613;DHT22;22054;51.646;7.078;2023-07-29T11:55:14;25.50;1.00
35613;DHT22;22054;51.646;7.078;2023-07-29T11:57:41;25.30;99.90
35613;DHT22;22054;51.646;7.078;2023-07-29T12:00:09;24.80;99.90
35613;DHT22;22054;51.646;7.078;2023-07-29T12:02:37;24.50;1.00
35613;DHT22;22054;51.646;7.078;2023-07-29T12:05:05;24.30;1.00
35613;DHT22;22054;51.646;7.078;2023-07-29T12:07:32;24.30;99.90
35613;DHT22;22054;51.646;7.078;2023-07-29T12:10:04;24.70;99.90
35613;DHT22;22054;51.646;7.078;2023-07-29T12:12:30;25.00;1.00
35613;DHT22;22054;51.646;7.078;2023-07-29T12:14:56;26.00;1.00
35613;DHT22;22054;51.646;7.078;2023-07-29T12:17:22;27.00;1.00
35613;DHT22;22054;51.646;7.078;2023-07-29T12:19:47;27.10;1.00
35613;DHT22;22054;51.646;7.078;2023-07-29T12:22:18;26.70;1.00
35613;DHT22;22054;51.646;7.078;2023-07-29T12:24:45;25.90;1.00
35613;DHT22;22054;51.646;7.078;2023-07-29T12:27:12;25.30;1.00
35613;DHT22;22054;51.646;7.078;2023-07-29T12:29:43;24.70;99.90
35613;DHT22;22054;51.646;7.078;2023-07-29T12:32:09;24.30;99.90
35613;DHT22;22054;51.646;7.078;2023-07-29T12:34:36;24.10;1.00
35613;DHT22;22054;51.646;7.078;2023-07-29T12:37:04;24.20;1.00
35613;DHT22;22054;51.646;7.078;2023-07-29T12:39:33;24.70;99.90
35613;DHT22;22054;51.646;7.078;2023-07-29T12:42:01;25.30;99.90
35613;DHT22;22054;51.646;7.078;2023-07-29T12:44:32;25.70;1.00
35613;DHT22;22054;51.646;7.078;2023-07-29T12:47:01;26.50;1.00
35613;DHT22;22054;51.646;7.078;2023-07-29T12:49:28;26.10;99.90
35613;DHT22;22054;51.646;7.078;2023-07-29T12:51:56;26.60;1.00
35613;DHT22;22054;51.646;7.078;2023-07-29T12:54:22;27.50;1.00
35613;DHT22;22054;51.646;7.078;2023-07-29T12:56:50;28.50;1.00
35613;DHT22;22054;51.646;7.078;2023-07-29T12:59:16;27.80;1.00
35613;DHT22;22054;51.646;7.078;2023-07-29T13:01:42;27.10;24.70
35613;DHT22;22054;51.646;7.078;2023-07-29T13:04:09;27.60;1.00
35613;DHT22;22054;51.646;7.078;2023-07-29T13:06:35;28.20;1.00
35613;DHT22;22054;51.646;7.078;2023-07-29T13:09:00;28.10;1.00
35613;DHT22;22054;51.646;7.078;2023-07-29T13:11:26;28.60;1.00
35613;DHT22;22054;51.646;7.078;2023-07-29T13:13:52;29.10;1.00
35613;DHT22;22054;51.646;7.078;2023-07-29T13:16:17;29.00;1.00
35613;DHT22;22054;51.646;7.078;2023-07-29T13:18:44;29.20;1.00
35613;DHT22;22054;51.646;7.078;2023-07-29T13:21:10;28.40;1.00
35613;DHT22;22054;51.646;7.078;2023-07-29T13:23:35;27.50;1.00
35613;DHT22;22054;51.646;7.078;2023-07-29T13:26:01;26.70;1.00
35613;DHT22;22054;51.646;7.078;2023-07-29T13:28:27;25.90;99.90
35613;DHT22;22054;51.646;7.078;2023-07-29T13:30:53;25.30;1.00
35613;DHT22;22054;51.646;7.078;2023-07-29T13:33:18;24.90;1.00
35613;DHT22;22054;51.646;7.078;2023-07-29T13:35:44;24.40;99.90
35613;DHT22;22054;51.646;7.078;2023-07-29T13:38:10;24.20;99.90
35613;DHT22;22054;51.646;7.078;2023-07-29T13:40:36;24.20;1.00
35613;DHT22;22054;51.646;7.078;2023-07-29T13:43:02;24.10;99.90
35613;DHT22;22054;51.646;7.078;2023-07-29T13:45:28;23.90;1.00
35613;DHT22;22054;51.646;7.078;2023-07-29T13:47:56;23.80;1.00
35613;DHT22;22054;51.646;7.078;2023-07-29T13:50:22;23.80;28.90
35613;DHT22;22054;51.646;7.078;2023-07-29T13:52:48;23.30;1.00
35613;DHT22;22054;51.646;7.078;2023-07-29T13:55:13;22.50;1.00
35613;DHT22;22054;51.646;7.078;2023-07-29T13:57:39;21.60;1.00
35613;DHT22;22054;51.646;7.078;2023-07-29T14:00:07;20.70;99.90
35613;DHT22;22054;51.646;7.078;2023-07-29T14:02:33;19.80;99.90
35613;DHT22;22054;51.646;7.078;2023-07-29T14:04:59;19.40;99.90
35613;DHT22;22054;51.646;7.078;2023-07-29T14:07:25;19.10;99.90
35613;DHT22;22054;51.646;7.078;2023-07-29T14:09:50;18.80;99.90
35613;DHT22;22054;51.646;7.078;2023-07-29T14:12:16;19.10;99.90
35613;DHT22;22054;51.646;7.078;2023-07-29T14:14:42;18.60;99.90
35613;DHT22;22054;51.646;7.078;2023-07-29T14:17:08;18.70;99.90
35613;DHT22;22054;51.646;7.078;2023-07-29T14:19:35;18.50;99.90
35613;DHT22;22054;51.646;7.078;2023-07-29T14:22:02;18.40;99.90
35613;DHT22;22054;51.646;7.078;2023-07-29T14:24:27;18.30;99.90
35613;DHT22;22054;51.646;7.078;2023-07-29T14:26:53;18.10;99.90
35613;DHT22;22054;51.646;7.078;2023-07-29T14:29:19;18.10;99.90
35613;DHT22;22054;51.646;7.078;2023-07-29T14:31:45;18.10;99.90
35613;DHT22;22054;51.646;7.078;2023-07-29T14:34:11;18.10;99.90
35613;DHT22;22054;51.646;7.078;2023-07-29T14:36:37;18.00;99.90
35613;DHT22;22054;51.646;7.078;2023-07-29T14:39:02;18.10;99.90
35613;DHT22;22054;51.646;7.078;2023-07-29T14:41:29;18.10;99.90
35613;DHT22;22054;51.646;7.078;2023-07-29T14:43:55;18.00;99.90
35613;DHT22;22054;51.646;7.078;2023-07-29T14:46:21;18.10;99.90
35613;DHT22;22054;51.646;7.078;2023-07-29T14:48:46;18.40;99.90
35613;DHT22;22054;51.646;7.078;2023-07-29T14:51:13;18.70;99.90
35613;DHT22;22054;51.646;7.078;2023-07-29T14:53:39;18.90;99.90
35613;DHT22;22054;51.646;7.078;2023-07-29T14:56:05;20.30;99.90
35613;DHT22;22054;51.646;7.078;2023-07-29T14:58:31;22.20;99.90
35613;DHT22;22054;51.646;7.078;2023-07-29T15:00:56;23.50;99.90
35613;DHT22;22054;51.646;7.078;2023-07-29T15:03:23;23.90;99.90
35613;DHT22;22054;51.646;7.078;2023-07-29T15:05:50;25.60;99.90
35613;DHT22;22054;51.646;7.078;2023-07-29T15:08:16;27.70;1.00
35613;DHT22;22054;51.646;7.078;2023-07-29T15:10:47;29.70;1.00
35613;DHT22;22054;51.646;7.078;2023-07-29T15:13:14;31.10;1.00
35613;DHT22;22054;51.646;7.078;2023-07-29T15:15:43;32.70;99.90
35613;DHT22;22054;51.646;7.078;2023-07-29T15:18:09;33.30;1.00
35613;DHT22;22054;51.646;7.078;2023-07-29T15:20:35;33.60;1.00
35613;DHT22;22054;51.646;7.078;2023-07-29T15:23:01;34.10;24.30
35613;DHT22;22054;51.646;7.078;2023-07-29T15:25:26;33.50;1.00
35613;DHT22;22054;51.646;7.078;2023-07-29T15:27:52;33.30;99.90
35613;DHT22;22054;51.646;7.078;2023-07-29T15:30:18;33.10;99.90
35613;DHT22;22054;51.646;7.078;2023-07-29T15:32:44;31.90;1.00
35613;DHT22;22054;51.646;7.078;2023-07-29T15:35:10;30.00;99.90
35613;DHT22;22054;51.646;7.078;2023-07-29T15:37:36;28.50;99.90
35613;DHT22;22054;51.646;7.078;2023-07-29T15:40:02;27.20;1.00
35613;DHT22;22054;51.646;7.078;2023-07-29T15:42:28;26.00;1.00
35613;DHT22;22054;51.646;7.078;2023-07-29T15:44:55;25.10;1.00
35613;DHT22;22054;51.646;7.078;2023-07-29T15:47:20;24.50;21.50
35613;DHT22;22054;51.646;7.078;2023-07-29T15:49:46;24.50;15.70
35613;DHT22;22054;51.646;7.078;2023-07-29T15:52:12;24.30;38.30
35613;DHT22;22054;51.646;7.078;2023-07-29T15:54:40;24.10;3.60
35613;DHT22;22054;51.646;7.078;2023-07-29T15:57:07;24.00;20.50
35613;DHT22;22054;51.646;7.078;2023-07-29T15:59:33;23.90;66.40
35613;DHT22;22054;51.646;7.078;2023-07-29T16:02:00;23.70;1.00
35613;DHT22;22054;51.646;7.078;2023-07-29T16:04:26;23.70;30.10